METAR Data
IDs: Format: Raw Decoded Include TAF

Data at: 0659 UTC 23 Feb 2019

KMAF 230653Z AUTO 25025G32KT 6SM HZ BKN028 12/M01 A2982 RMK AO2 PK WND 25033/0629 LTG DSNT E SLP068 T01221006
KMAF 230553Z 22023G29KT 10SM FEW025 BKN035 BKN049 15/09 A2975 RMK AO2 PK WND 22029/0552 WSHFT 0522 LTG DSNT S SLP046 T01500089 10222 20133 402330006 53026
KMAF 230542Z 22016G23KT 10SM SCT025 BKN035 14/08 A2976 RMK AO2 WSHFT 0522 T01440083
KMAF 230453Z 15017KT 10SM CLR 13/06 A2967 RMK AO2 PK WND 15028/0417 SLP022 T01330056
KMAF 230353Z 14019G25KT 10SM CLR 15/05 A2965 RMK AO2 PK WND 15029/0310 SLP016 T01500050
KMAF 230253Z 14019KT 10SM CLR 16/04 A2967 RMK AO2 SLP022 T01610039 56009
KMAF 230153Z 13011KT 10SM CLR 16/03 A2968 RMK AO2 SLP028 T01610028
KMAF 230053Z 15015KT 10SM CLR 19/01 A2968 RMK AO2 PK WND 15026/0014 SLP032 T01890006
KMAF 222353Z 16017G28KT 10SM CLR 22/M02 A2970 RMK AO2 PK WND 16028/2347 SLP031 T02221017 10233 20161 56023
KMAF 222253Z 13011G20KT 10SM CLR 22/02 A2972 RMK AO2 SLP037 T02220017
KMAF 222153Z 18013G19KT 10SM CLR 22/M01 A2975 RMK AO2 SLP049 T02221011
KMAF 222053Z 19011G19KT 10SM CLR 22/00 A2977 RMK AO2 SLP057 T02170000 56034
KMAF 221953Z 21007KT 170V240 10SM CLR 22/M01 A2980 RMK AO2 SLP066 T02221006
KMAF 221853Z 17009KT 10SM CLR 19/01 A2984 RMK AO2 SLP082 T01940006
KMAF 221753Z 10SM CLR 16/05 A2988 RMK AO2 SLP097 T01610050 10161 20006 58012
KMAF 221653Z 18006KT 10SM CLR 14/07 A2991 RMK AO2 SLP107 T01440072
KMAF 221553Z 17006KT 10SM FEW011 12/08 A2992 RMK AO2 SLP113 T01170078
KMAF 221544Z 15006KT 9SM SCT011 11/08 A2993 RMK AO2 T01110078
KMAF 221453Z 15011KT 6SM BR OVC007 09/07 A2992 RMK AO2 SLP113 T00940072 53021
KMAF 221353Z 00000KT 6SM BR OVC007 06/05 A2990 RMK AO2 SLP107 T00560050
KMAF 221300Z 36005KT 6SM BR BKN009 01/01 A2988 RMK AO2 CIG 007V011 T00110006
KMAF 221253Z 35006KT 6SM BR FEW011 01/01 A2987 RMK AO2 SLP102 T00060006
KMAF 221153Z AUTO 13007KT 10SM CLR 04/03 A2985 RMK AO2 SLP088 T00390028 10061 20017 53004
KMAF 221053Z AUTO 12011KT 10SM CLR 04/03 A2984 RMK AO2 SLP081 T00440028
KMAF 220953Z AUTO 10005KT 10SM CLR 03/01 A2984 RMK AO2 SLP084 T00280006
KMAF 220853Z AUTO 00000KT 10SM CLR 03/01 A2984 RMK AO2 SLP083 T00330011 55000
KMAF 220753Z AUTO 14009KT 10SM CLR 06/02 A2983 RMK AO2 SLP078 T00560022
KMAF 220653Z AUTO 12012KT 10SM CLR 06/01 A2983 RMK AO2 SLP079 T00610011
KMAF 220553Z 11009KT 10SM CLR 06/01 A2984 RMK AO2 SLP084 T00610006 10167 20061 401940061 51008
KMAF 220453Z 11008KT 10SM CLR 08/02 A2984 RMK AO2 SLP084 T00780017
KMAF 220353Z 12012KT 10SM CLR 09/02 A2983 RMK AO2 SLP081 T00890022
KMAF 220253Z 11012KT 10SM CLR 11/02 A2981 RMK AO2 SLP075 T01060022 51019
KMAF 220153Z 12012KT 10SM CLR 12/02 A2980 RMK AO2 SLP070 T01220017
KMAF 220053Z 12013KT 10SM CLR 14/02 A2978 RMK AO2 SLP063 T01390017
KMAF 212353Z 12017KT 10SM CLR 17/02 A2975 RMK AO2 SLP050 T01670017 10194 20156 53002
KMAF 212253Z 14016KT 10SM CLR 18/01 A2973 RMK AO2 SLP044 T01830006
KMAF 212153Z 14016G22KT 10SM CLR 19/01 A2973 RMK AO2 SLP044 T01890011
KMAF 212053Z 15014KT 10SM CLR 19/01 A2974 RMK AO2 SLP047 T01890006 58020
KMAF 211953Z 16017G21KT 10SM CLR 18/01 A2976 RMK AO2 SLP053 T01780006